createdAt,value
2018-11-25T00:00:39.106Z,4.14
2018-11-25T00:01:39.131Z,4.00
2018-11-25T00:02:39.162Z,3.84
2018-11-25T00:03:39.183Z,3.84
2018-11-25T00:04:39.212Z,3.83
2018-11-25T00:05:39.233Z,3.72
2018-11-25T00:06:39.258Z,3.69
2018-11-25T00:07:39.285Z,3.60
2018-11-25T00:08:39.308Z,3.48
2018-11-25T00:09:39.332Z,3.51
2018-11-25T00:10:39.357Z,3.50
2018-11-25T00:11:39.383Z,3.55
2018-11-25T00:12:39.409Z,3.48
2018-11-25T00:13:39.432Z,3.51
2018-11-25T00:14:39.458Z,3.65
2018-11-25T00:15:39.483Z,3.54
2018-11-25T00:16:39.506Z,3.57
2018-11-25T00:17:39.531Z,3.57
2018-11-25T00:18:39.558Z,3.65
2018-11-25T00:19:39.582Z,3.78
2018-11-25T00:20:39.607Z,3.73
2018-11-25T00:21:39.633Z,3.65
2018-11-25T00:22:39.657Z,3.73
2018-11-25T00:23:39.682Z,3.52
2018-11-25T00:24:39.707Z,3.51
2018-11-25T00:25:39.733Z,3.43
2018-11-25T00:26:39.757Z,3.45
2018-11-25T00:27:39.783Z,3.40
2018-11-25T00:28:39.806Z,3.54
2018-11-25T00:29:39.831Z,3.40
2018-11-25T00:30:39.857Z,3.55
2018-11-25T00:31:39.882Z,3.47
2018-11-25T00:32:39.913Z,3.45
2018-11-25T00:33:39.931Z,3.45
2018-11-25T00:34:39.957Z,3.54
2018-11-25T00:35:39.981Z,3.47
2018-11-25T00:36:40.006Z,3.51
2018-11-25T00:37:43.334Z,3.52
2018-11-25T00:38:40.057Z,3.58
2018-11-25T00:39:40.082Z,3.55
2018-11-25T00:40:40.105Z,3.66
2018-11-25T00:41:40.130Z,3.66
2018-11-25T00:42:40.157Z,3.62
2018-11-25T00:43:40.181Z,3.65
2018-11-25T00:44:40.206Z,3.73
2018-11-25T00:45:40.231Z,3.70
2018-11-25T00:46:40.255Z,3.69
2018-11-25T00:47:40.284Z,3.76
2018-11-25T00:48:40.306Z,3.72
2018-11-25T00:49:40.330Z,3.62
2018-11-25T00:50:40.356Z,3.66
2018-11-25T00:51:40.380Z,3.57
2018-11-25T00:52:40.404Z,3.55
2018-11-25T00:53:40.431Z,3.50
2018-11-25T00:54:40.466Z,3.58
2018-11-25T00:55:40.481Z,3.62
2018-11-25T00:56:40.506Z,3.62
2018-11-25T00:57:40.582Z,3.52
2018-11-25T00:58:40.554Z,3.54
2018-11-25T00:59:40.581Z,3.68
2018-11-25T01:00:40.603Z,3.47
2018-11-25T01:01:40.628Z,3.47
2018-11-25T01:02:40.654Z,3.43
2018-11-25T01:03:40.679Z,3.39
2018-11-25T01:04:40.702Z,3.42
2018-11-25T01:05:40.730Z,3.32
2018-11-25T01:06:40.752Z,3.47
2018-11-25T01:07:40.787Z,3.51
2018-11-25T01:08:40.801Z,3.35
2018-11-25T01:09:40.827Z,3.18
2018-11-25T01:10:40.854Z,3.14
2018-11-25T01:11:40.881Z,3.03
2018-11-25T01:12:40.902Z,3.13
2018-11-25T01:13:40.932Z,3.08
2018-11-25T01:14:40.953Z,3.02
2018-11-25T01:15:40.975Z,2.97
2018-11-25T01:16:41.000Z,3.02
2018-11-25T01:17:41.028Z,2.96
2018-11-25T01:18:41.051Z,3.11
2018-11-25T01:19:41.076Z,3.13
2018-11-25T01:20:41.099Z,3.18
2018-11-25T01:21:41.123Z,3.17
2018-11-25T01:22:41.153Z,3.26
2018-11-25T01:23:41.174Z,3.26
2018-11-25T01:24:41.198Z,3.21
2018-11-25T01:25:41.223Z,3.14
2018-11-25T01:26:41.249Z,3.02
2018-11-25T01:27:41.302Z,2.95
2018-11-25T01:28:41.296Z,2.97
2018-11-25T01:29:41.323Z,2.97
2018-11-25T01:30:41.553Z,3.00
2018-11-25T01:32:41.398Z,3.05
2018-11-25T01:33:41.466Z,3.14
2018-11-25T01:34:41.446Z,2.97
2018-11-25T01:35:41.471Z,3.13
2018-11-25T01:38:41.547Z,3.15
2018-11-25T01:39:41.570Z,3.29
2018-11-25T01:40:41.598Z,3.23
2018-11-25T01:41:41.618Z,3.17
2018-11-25T01:42:41.643Z,3.35
2018-11-25T01:43:41.667Z,3.28
2018-11-25T01:45:41.725Z,2.97
2018-11-25T01:46:41.745Z,3.10
2018-11-25T01:47:41.768Z,2.99
2018-11-25T01:48:41.791Z,3.08
2018-11-25T01:49:41.820Z,3.06
2018-11-25T01:50:41.845Z,3.05
2018-11-25T01:51:41.867Z,3.05
2018-11-25T01:52:41.889Z,3.11
2018-11-25T01:53:41.914Z,3.08
2018-11-25T01:54:41.939Z,3.03
2018-11-25T01:55:42.166Z,3.15
2018-11-25T01:56:41.988Z,3.31
2018-11-25T01:58:42.039Z,2.96
2018-11-25T01:59:42.066Z,2.95
2018-11-25T02:00:42.092Z,2.96
2018-11-25T02:01:42.116Z,2.92
2018-11-25T02:02:42.147Z,2.89
2018-11-25T02:03:42.161Z,2.85
2018-11-25T02:04:42.185Z,2.84
2018-11-25T02:05:42.210Z,2.87
2018-11-25T02:06:42.235Z,3.02
2018-11-25T02:07:42.261Z,2.95
2018-11-25T02:08:42.285Z,3.03
2018-11-25T02:09:42.311Z,3.02
2018-11-25T02:10:42.335Z,2.97
2018-11-25T02:11:42.359Z,2.85
2018-11-25T02:12:42.383Z,3.00
2018-11-25T02:13:42.408Z,3.03
2018-11-25T02:14:42.432Z,2.95
2018-11-25T02:15:42.457Z,2.79
2018-11-25T02:16:42.481Z,2.82
2018-11-25T02:17:42.511Z,2.85
2018-11-25T02:18:42.530Z,2.81
2018-11-25T02:19:42.556Z,2.93
2018-11-25T02:20:42.581Z,2.99
2018-11-25T02:21:42.607Z,2.92
2018-11-25T02:22:42.630Z,2.97
2018-11-25T02:23:42.653Z,2.99
2018-11-25T02:24:42.676Z,2.92
2018-11-25T02:25:42.701Z,2.96
2018-11-25T02:26:42.725Z,2.95
2018-11-25T02:27:42.755Z,2.85
2018-11-25T02:28:42.774Z,2.85
2018-11-25T02:29:42.799Z,2.75
2018-11-25T02:30:42.824Z,2.90
2018-11-25T02:31:42.848Z,2.92
2018-11-25T02:32:42.871Z,2.96
2018-11-25T02:33:42.896Z,2.92
2018-11-25T02:34:42.924Z,2.96
2018-11-25T02:35:42.946Z,2.93
2018-11-25T02:36:42.969Z,2.92
2018-11-25T02:37:42.997Z,2.95
2018-11-25T02:38:43.018Z,2.82
2018-11-25T02:39:43.043Z,2.82
2018-11-25T02:40:43.070Z,2.85
2018-11-25T02:41:43.093Z,2.79
2018-11-25T02:42:43.119Z,2.78
2018-11-25T02:43:43.142Z,2.78
2018-11-25T02:44:43.165Z,2.81
2018-11-25T02:45:43.189Z,2.69
2018-11-25T02:46:43.214Z,2.69
2018-11-25T02:47:43.240Z,2.77
2018-11-25T02:48:43.263Z,2.77
2018-11-25T02:49:43.286Z,2.67
2018-11-25T02:50:43.314Z,2.71
2018-11-25T02:51:43.335Z,2.69
2018-11-25T02:52:43.360Z,2.81
2018-11-25T02:53:43.384Z,2.77
2018-11-25T02:54:43.408Z,2.84
2018-11-25T02:55:43.432Z,2.77
2018-11-25T02:56:43.456Z,2.75
2018-11-25T02:57:43.482Z,2.81
2018-11-25T02:58:43.505Z,2.78
2018-11-25T02:59:43.531Z,2.77
2018-11-25T03:00:43.555Z,2.77
2018-11-25T03:01:43.578Z,2.90
2018-11-25T03:02:43.604Z,2.95
2018-11-25T03:03:43.628Z,2.90
2018-11-25T03:04:43.650Z,2.90
2018-11-25T03:05:43.675Z,2.78
2018-11-25T03:06:43.708Z,2.92
2018-11-25T03:07:43.725Z,2.81
2018-11-25T03:08:43.748Z,2.81
2018-11-25T03:09:43.775Z,2.78
2018-11-25T03:10:43.799Z,2.78
2018-11-25T03:11:43.821Z,2.75
2018-11-25T03:12:43.844Z,2.69
2018-11-25T03:13:43.869Z,2.67
2018-11-25T03:14:43.894Z,2.71
2018-11-25T03:15:43.919Z,2.72
2018-11-25T03:16:43.945Z,2.64
2018-11-25T03:17:44.009Z,2.61
2018-11-25T03:18:43.990Z,2.77
2018-11-25T03:19:44.016Z,2.66
2018-11-25T03:20:44.040Z,2.78
2018-11-25T03:21:44.063Z,2.67
2018-11-25T03:22:44.093Z,2.57
2018-11-25T03:23:44.117Z,2.56
2018-11-25T03:24:44.136Z,2.49
2018-11-25T03:25:44.160Z,2.48
2018-11-25T03:26:44.184Z,2.48
2018-11-25T03:27:44.208Z,2.67
2018-11-25T03:28:44.232Z,2.64
2018-11-25T03:29:44.258Z,2.61
2018-11-25T03:30:44.283Z,2.59
2018-11-25T03:31:44.305Z,2.71
2018-11-25T03:32:44.328Z,2.61
2018-11-25T03:33:44.353Z,2.66
2018-11-25T03:34:44.378Z,2.74
2018-11-25T03:35:44.401Z,2.71
2018-11-25T03:36:44.425Z,2.63
2018-11-25T03:37:44.449Z,2.66
2018-11-25T03:38:44.475Z,2.66
2018-11-25T03:39:44.499Z,2.52
2018-11-25T03:40:44.521Z,2.48
2018-11-25T03:41:44.546Z,2.45
2018-11-25T03:42:44.570Z,2.54
2018-11-25T03:43:44.596Z,2.57
2018-11-25T03:44:44.617Z,2.63
2018-11-25T03:45:44.645Z,2.57
2018-11-25T03:46:44.666Z,2.45
2018-11-25T03:47:44.693Z,2.52
2018-11-25T03:48:44.714Z,2.49
2018-11-25T03:49:44.738Z,2.46
2018-11-25T03:50:44.763Z,2.46
2018-11-25T03:51:44.788Z,2.30
2018-11-25T03:52:44.813Z,2.45
2018-11-25T03:53:44.839Z,2.42
2018-11-25T03:54:44.860Z,2.46
2018-11-25T03:55:44.883Z,2.38
2018-11-25T03:56:44.908Z,2.45
2018-11-25T03:57:44.934Z,2.43
2018-11-25T03:58:44.956Z,2.53
2018-11-25T03:59:44.980Z,2.46
2018-11-25T04:00:45.011Z,2.48
2018-11-25T04:01:45.028Z,2.59
2018-11-25T04:02:45.055Z,2.59
2018-11-25T04:03:45.076Z,2.59
2018-11-25T04:04:45.100Z,2.57
2018-11-25T04:05:45.126Z,2.59
2018-11-25T04:06:45.151Z,2.48
2018-11-25T04:07:45.173Z,2.41
2018-11-25T04:08:45.196Z,2.45
2018-11-25T04:09:45.221Z,2.45
2018-11-25T04:10:45.246Z,2.48
2018-11-25T04:11:46.448Z,2.43
2018-11-25T04:12:45.292Z,2.45
2018-11-25T04:13:45.319Z,2.45
2018-11-25T04:14:45.341Z,2.46
2018-11-25T04:15:45.365Z,2.35
2018-11-25T04:16:45.389Z,2.38
2018-11-25T04:17:45.421Z,2.45
2018-11-25T04:18:45.439Z,2.41
2018-11-25T04:19:45.462Z,2.34
2018-11-25T04:20:45.486Z,2.21
2018-11-25T04:21:45.510Z,2.27
2018-11-25T04:22:45.535Z,2.35
2018-11-25T04:23:45.558Z,2.35
2018-11-25T04:24:45.583Z,2.28
2018-11-25T04:25:45.606Z,2.27
2018-11-25T04:26:45.630Z,2.21
2018-11-25T04:27:45.655Z,2.18
2018-11-25T04:28:45.678Z,2.24
2018-11-25T04:29:45.702Z,2.17
2018-11-25T04:30:45.727Z,2.17
2018-11-25T04:31:45.751Z,2.21
2018-11-25T04:32:45.774Z,2.20
2018-11-25T04:33:45.798Z,2.25
2018-11-25T04:34:45.823Z,2.24
2018-11-25T04:35:45.846Z,2.02
2018-11-25T04:36:45.869Z,2.16
2018-11-25T04:37:45.898Z,2.18
2018-11-25T04:38:45.921Z,2.17
2018-11-25T04:39:45.943Z,2.09
2018-11-25T04:40:45.966Z,2.00
2018-11-25T04:41:45.989Z,2.17
2018-11-25T04:42:46.014Z,2.16
2018-11-25T04:43:46.037Z,2.12
2018-11-25T04:44:46.061Z,2.06
2018-11-25T04:45:46.085Z,2.00
2018-11-25T04:46:46.109Z,2.20
2018-11-25T04:47:46.136Z,2.16
2018-11-25T04:48:46.157Z,2.09
2018-11-25T04:49:46.183Z,1.99
2018-11-25T04:50:46.205Z,1.93
2018-11-25T04:51:46.229Z,1.98
2018-11-25T04:52:46.256Z,1.86
2018-11-25T04:53:46.275Z,1.88
2018-11-25T04:54:46.300Z,1.91
2018-11-25T04:55:46.324Z,2.06
2018-11-25T04:56:46.347Z,1.90
2018-11-25T04:57:46.372Z,1.98
2018-11-25T04:58:46.396Z,1.98
2018-11-25T04:59:46.420Z,1.88
2018-11-25T05:00:46.446Z,1.87
2018-11-25T05:01:46.467Z,1.83
2018-11-25T05:02:46.492Z,1.87
2018-11-25T05:03:46.519Z,1.87
2018-11-25T05:04:46.541Z,1.88
2018-11-25T05:05:46.563Z,1.88
2018-11-25T05:06:46.586Z,2.00
2018-11-25T05:07:46.613Z,1.91
2018-11-25T05:08:46.634Z,1.90
2018-11-25T05:09:46.662Z,2.00
2018-11-25T05:10:46.684Z,1.99
2018-11-25T05:11:46.705Z,1.93
2018-11-25T05:12:46.729Z,1.90
2018-11-25T05:13:46.752Z,1.98
2018-11-25T05:14:46.778Z,2.02
2018-11-25T05:15:46.800Z,1.84
2018-11-25T05:16:46.824Z,1.93
2018-11-25T05:17:46.848Z,1.91
2018-11-25T05:18:46.873Z,1.91
2018-11-25T05:19:46.894Z,1.98
2018-11-25T05:20:46.919Z,1.90
2018-11-25T05:21:46.943Z,1.95
2018-11-25T05:22:46.966Z,1.91
2018-11-25T05:23:46.990Z,1.79
2018-11-25T05:24:47.013Z,1.86
2018-11-25T05:25:47.037Z,1.80
2018-11-25T05:26:47.061Z,1.79
2018-11-25T05:27:47.084Z,1.84
2018-11-25T05:28:47.111Z,1.80
2018-11-25T05:29:47.132Z,1.93
2018-11-25T05:30:47.156Z,1.98
2018-11-25T05:31:47.180Z,1.93
2018-11-25T05:32:47.204Z,1.93
2018-11-25T05:33:47.226Z,1.83
2018-11-25T05:34:47.251Z,1.79
2018-11-25T05:35:47.274Z,1.84
2018-11-25T05:36:47.297Z,1.86
2018-11-25T05:37:47.321Z,1.83
2018-11-25T05:38:47.345Z,1.90
2018-11-25T05:39:47.370Z,1.87
2018-11-25T05:40:47.392Z,2.00
2018-11-25T05:41:47.417Z,1.91
2018-11-25T05:42:47.446Z,1.95
2018-11-25T05:43:47.464Z,1.83
2018-11-25T05:44:47.486Z,2.00
2018-11-25T05:45:47.510Z,1.98
2018-11-25T05:46:47.535Z,2.03
2018-11-25T05:47:47.562Z,2.09
2018-11-25T05:48:47.580Z,2.00
2018-11-25T05:49:47.606Z,1.95
2018-11-25T05:50:47.628Z,2.07
2018-11-25T05:51:47.653Z,2.16
2018-11-25T05:52:47.679Z,1.98
2018-11-25T05:53:47.702Z,1.98
2018-11-25T05:54:47.722Z,2.03
2018-11-25T05:55:47.749Z,2.05
2018-11-25T05:56:47.770Z,2.00
2018-11-25T05:57:47.794Z,2.03
2018-11-25T05:58:47.817Z,1.84
2018-11-25T05:59:47.842Z,1.83
2018-11-25T06:00:47.866Z,1.87
2018-11-25T06:01:47.889Z,1.81
2018-11-25T06:02:47.911Z,1.90
2018-11-25T06:03:47.935Z,1.95
2018-11-25T06:04:47.959Z,1.86
2018-11-25T06:05:47.986Z,1.99
2018-11-25T06:06:48.007Z,1.88
2018-11-25T06:07:48.030Z,1.90
2018-11-25T06:08:48.054Z,1.88
2018-11-25T06:09:48.078Z,2.00
2018-11-25T06:10:48.102Z,1.93
2018-11-25T06:11:48.125Z,2.02
2018-11-25T06:12:48.148Z,1.99
2018-11-25T06:13:48.174Z,1.84
2018-11-25T06:14:48.198Z,1.91
2018-11-25T06:15:48.219Z,1.80
2018-11-25T06:16:48.241Z,1.86
2018-11-25T06:17:48.267Z,1.95
2018-11-25T06:18:48.291Z,2.02
2018-11-25T06:19:48.315Z,1.90
2018-11-25T06:20:48.338Z,1.93
2018-11-25T06:21:48.362Z,1.91
2018-11-25T06:22:48.383Z,2.00
2018-11-25T06:23:48.408Z,1.88
2018-11-25T06:24:48.434Z,1.99
2018-11-25T06:25:48.456Z,2.00
2018-11-25T06:26:48.480Z,2.09
2018-11-25T06:27:48.502Z,2.05
2018-11-25T06:28:48.525Z,2.12
2018-11-25T06:29:48.550Z,2.00
2018-11-25T06:30:48.574Z,2.00
2018-11-25T06:31:48.599Z,2.05
2018-11-25T06:32:48.671Z,2.00
2018-11-25T06:33:48.648Z,2.12
2018-11-25T06:34:48.669Z,2.10
2018-11-25T06:35:48.692Z,2.14
2018-11-25T06:36:48.718Z,2.07
2018-11-25T06:37:48.738Z,2.00
2018-11-25T06:38:48.762Z,2.14
2018-11-25T06:39:48.788Z,2.20
2018-11-25T06:40:48.810Z,2.05
2018-11-25T06:41:48.833Z,2.10
2018-11-25T06:42:48.860Z,2.06
2018-11-25T06:43:48.880Z,2.02
2018-11-25T06:44:48.910Z,1.95
2018-11-25T06:45:48.928Z,2.02
2018-11-25T06:46:48.953Z,2.00
2018-11-25T06:47:48.979Z,2.02
2018-11-25T06:48:54.790Z,2.00
2018-11-25T06:49:49.022Z,1.93
2018-11-25T06:50:49.047Z,2.17
2018-11-25T06:51:49.071Z,2.07
2018-11-25T06:52:49.092Z,2.18
2018-11-25T06:53:49.118Z,2.16
2018-11-25T06:54:49.140Z,2.07
2018-11-25T06:55:49.165Z,2.06
2018-11-25T06:56:49.188Z,2.14
2018-11-25T06:57:49.220Z,2.07
2018-11-25T06:58:49.239Z,2.07
2018-11-25T06:59:49.260Z,2.12
2018-11-25T07:00:49.282Z,2.06
2018-11-25T07:01:49.308Z,2.09
2018-11-25T07:02:49.329Z,2.17
2018-11-25T07:03:49.353Z,2.12
2018-11-25T07:04:49.380Z,2.14
2018-11-25T07:05:49.400Z,2.17
2018-11-25T07:06:49.426Z,2.03
2018-11-25T07:07:49.449Z,2.03
2018-11-25T07:08:49.473Z,2.05
2018-11-25T07:09:49.496Z,1.99
2018-11-25T07:10:49.518Z,1.98
2018-11-25T07:11:49.545Z,2.05
2018-11-25T07:12:49.568Z,2.06
2018-11-25T07:13:49.592Z,2.03
2018-11-25T07:14:49.613Z,1.99
2018-11-25T07:15:49.638Z,1.95
2018-11-25T07:16:49.661Z,1.95
2018-11-25T07:17:49.684Z,1.84
2018-11-25T07:18:49.709Z,1.73
2018-11-25T07:19:49.733Z,1.81
2018-11-25T07:20:49.758Z,2.20
2018-11-25T07:21:49.781Z,2.63
2018-11-25T07:22:49.805Z,3.06
2018-11-25T07:23:49.828Z,3.45
2018-11-25T07:24:49.854Z,4.06
2018-11-25T07:25:49.876Z,4.63
2018-11-25T07:26:49.900Z,5.30
2018-11-25T07:27:49.924Z,5.75
2018-11-25T07:28:49.952Z,6.04
2018-11-25T07:29:49.971Z,6.52
2018-11-25T07:30:49.997Z,6.79
2018-11-25T07:31:50.023Z,7.03
2018-11-25T07:32:50.044Z,7.39
2018-11-25T07:33:50.069Z,7.72
2018-11-25T07:34:50.095Z,8.23
2018-11-25T07:35:50.121Z,8.48
2018-11-25T07:36:50.143Z,8.84
2018-11-25T07:37:50.168Z,9.20
2018-11-25T07:38:50.193Z,9.39
2018-11-25T07:39:50.219Z,9.72
2018-11-25T07:40:50.242Z,10.04
2018-11-25T07:41:50.268Z,10.30
2018-11-25T07:42:50.292Z,10.53
2018-11-25T07:43:50.319Z,10.66
2018-11-25T07:44:50.344Z,10.86
2018-11-25T07:45:50.370Z,11.11
2018-11-25T07:46:50.396Z,11.36
2018-11-25T07:47:50.421Z,11.46
2018-11-25T07:48:50.447Z,11.75
2018-11-25T07:49:50.473Z,11.91
2018-11-25T07:50:50.499Z,12.01
2018-11-25T07:51:50.526Z,12.27
2018-11-25T07:52:50.554Z,12.57
2018-11-25T07:53:50.578Z,12.68
2018-11-25T07:54:50.605Z,12.70
2018-11-25T07:55:50.632Z,12.96
2018-11-25T07:56:50.657Z,13.15
2018-11-25T07:57:50.687Z,13.23
2018-11-25T07:58:50.712Z,13.46
2018-11-25T07:59:50.744Z,13.60
2018-11-25T08:00:50.766Z,13.67
2018-11-25T08:01:50.794Z,13.75
2018-11-25T08:02:50.824Z,13.96
2018-11-25T08:03:50.851Z,14.17
2018-11-25T08:04:50.877Z,14.27
2018-11-25T08:05:50.907Z,14.70
2018-11-25T08:06:50.934Z,14.68
2018-11-25T08:07:50.962Z,14.68
2018-11-25T08:08:50.989Z,14.64
2018-11-25T08:09:51.017Z,14.75
2018-11-25T08:10:51.048Z,15.02
2018-11-25T08:11:51.075Z,15.25
2018-11-25T08:12:51.103Z,14.69
2018-11-25T08:13:51.133Z,14.89
2018-11-25T08:14:51.161Z,15.17
2018-11-25T08:15:51.190Z,15.56
2018-11-25T08:16:51.228Z,15.86
2018-11-25T08:17:51.248Z,15.75
2018-11-25T08:18:51.279Z,15.68
2018-11-25T08:19:51.309Z,15.86
2018-11-25T08:20:51.340Z,16.33
2018-11-25T08:21:51.366Z,16.43
2018-11-25T08:22:51.399Z,16.78
2018-11-25T08:23:51.426Z,16.97
2018-11-25T08:24:51.456Z,17.19
2018-11-25T08:25:51.486Z,16.94
2018-11-25T08:26:51.516Z,17.22
2018-11-25T08:27:51.549Z,16.76
2018-11-25T08:28:51.578Z,17.12
2018-11-25T08:29:51.609Z,17.28
2018-11-25T08:30:51.639Z,17.21
2018-11-25T08:31:51.672Z,17.56
2018-11-25T08:32:51.701Z,17.66
2018-11-25T08:33:51.731Z,17.71
2018-11-25T08:34:51.763Z,17.79
2018-11-25T08:35:51.794Z,17.34
2018-11-25T08:36:51.824Z,18.10
2018-11-25T08:37:51.907Z,18.50
2018-11-25T08:38:51.888Z,18.55
2018-11-25T08:39:51.920Z,18.94
2018-11-25T08:40:51.954Z,19.07
2018-11-25T08:41:51.983Z,19.11
2018-11-25T08:42:52.015Z,19.51
2018-11-25T08:43:52.048Z,19.41
2018-11-25T08:44:52.080Z,19.44
2018-11-25T08:45:52.112Z,19.37
2018-11-25T08:46:52.145Z,19.04
2018-11-25T08:47:52.179Z,19.07
2018-11-25T08:48:52.211Z,18.88
2018-11-25T08:49:52.243Z,18.92
2018-11-25T08:50:52.277Z,19.31
2018-11-25T08:51:52.309Z,19.46
2018-11-25T08:52:52.348Z,19.84
2018-11-25T08:53:52.375Z,19.58
2018-11-25T08:54:52.408Z,19.73
2018-11-25T08:55:52.444Z,20.23
2018-11-25T08:56:52.475Z,20.52
2018-11-25T08:57:52.508Z,20.98
2018-11-25T08:58:52.544Z,21.21
2018-11-25T08:59:52.578Z,21.25
2018-11-25T09:00:52.610Z,21.61
2018-11-25T09:01:52.644Z,21.72
2018-11-25T09:02:52.678Z,21.40
2018-11-25T09:03:52.713Z,21.37
2018-11-25T09:04:52.747Z,21.68
2018-11-25T09:05:52.783Z,22.21
2018-11-25T09:06:52.817Z,22.61
2018-11-25T09:07:52.853Z,22.73
2018-11-25T09:08:52.888Z,20.69
2018-11-25T09:09:52.923Z,20.24
2018-11-25T09:10:52.959Z,20.36
2018-11-25T09:11:52.995Z,20.35
2018-11-25T09:12:55.832Z,21.24
2018-11-25T09:13:53.065Z,22.06
2018-11-25T09:14:53.105Z,22.36
2018-11-25T09:15:53.138Z,22.45
2018-11-25T09:16:53.173Z,22.47
2018-11-25T09:17:53.211Z,22.07
2018-11-25T09:18:53.247Z,22.57
2018-11-25T09:19:53.284Z,22.73
2018-11-25T09:20:53.320Z,22.33
2018-11-25T09:21:53.359Z,21.16
2018-11-25T09:22:53.396Z,22.14
2018-11-25T09:23:53.434Z,22.75
2018-11-25T09:24:53.471Z,23.31
2018-11-25T09:25:53.509Z,23.57
2018-11-25T09:26:53.546Z,23.63
2018-11-25T09:27:53.585Z,23.98
2018-11-25T09:28:53.623Z,24.31
2018-11-25T09:29:53.661Z,24.64
2018-11-25T09:30:53.698Z,22.39
2018-11-25T09:31:53.737Z,23.43
2018-11-25T09:32:53.776Z,23.76
2018-11-25T09:33:53.813Z,24.25
2018-11-25T09:34:53.853Z,24.39
2018-11-25T09:35:53.891Z,24.90
2018-11-25T09:36:53.930Z,24.34
2018-11-25T09:37:53.969Z,24.52
2018-11-25T09:38:54.008Z,24.77
2018-11-25T09:39:54.048Z,24.73
2018-11-25T09:40:59.151Z,24.18
2018-11-25T09:41:54.126Z,23.23
2018-11-25T09:42:54.166Z,21.96
2018-11-25T09:43:54.206Z,21.25
2018-11-25T09:44:54.249Z,20.89
2018-11-25T09:45:54.285Z,20.69
2018-11-25T09:46:54.324Z,19.37
2018-11-25T09:47:54.365Z,18.75
2018-11-25T09:48:54.407Z,18.88
2018-11-25T09:49:54.445Z,18.50
2018-11-25T09:50:54.484Z,18.81
2018-11-25T09:51:54.526Z,19.69
2018-11-25T09:52:54.565Z,20.08
2018-11-25T09:53:54.605Z,20.11
2018-11-25T09:54:54.643Z,20.85
2018-11-25T09:55:54.684Z,21.34
2018-11-25T09:56:54.724Z,21.17
2018-11-25T09:57:54.764Z,21.65
2018-11-25T09:58:54.804Z,21.96
2018-11-25T09:59:54.844Z,21.12
2018-11-25T10:00:54.887Z,20.80
2018-11-25T10:01:54.925Z,21.03
2018-11-25T10:02:54.964Z,20.58
2018-11-25T10:03:55.006Z,20.66
2018-11-25T10:04:55.045Z,21.14
2018-11-25T10:05:55.087Z,20.91
2018-11-25T10:06:55.128Z,20.59
2018-11-25T10:07:55.170Z,20.43
2018-11-25T10:08:55.208Z,20.33
2018-11-25T10:09:55.249Z,20.91
2018-11-25T10:10:55.290Z,20.97
2018-11-25T10:11:55.330Z,21.37
2018-11-25T10:12:55.371Z,21.06
2018-11-25T10:13:55.411Z,21.56
2018-11-25T10:14:55.453Z,21.82
2018-11-25T10:15:55.494Z,22.20
2018-11-25T10:16:55.536Z,21.86
2018-11-25T10:17:59.886Z,21.75
2018-11-25T10:18:55.617Z,22.05
2018-11-25T10:19:55.658Z,21.53
2018-11-25T10:20:55.698Z,22.10
2018-11-25T10:21:55.740Z,22.25
2018-11-25T10:22:55.784Z,22.83
2018-11-25T10:23:55.828Z,22.40
2018-11-25T10:24:55.863Z,21.84
2018-11-25T10:25:55.905Z,22.65
2018-11-25T10:26:55.948Z,22.82
2018-11-25T10:27:55.992Z,22.17
2018-11-25T10:28:56.029Z,22.21
2018-11-25T10:29:56.071Z,21.94
2018-11-25T10:30:56.112Z,22.25
2018-11-25T10:31:56.162Z,22.07
2018-11-25T10:32:56.196Z,23.43
2018-11-25T10:33:56.237Z,22.43
2018-11-25T10:34:56.280Z,21.80
2018-11-25T10:35:56.321Z,21.49
2018-11-25T10:36:56.362Z,21.19
2018-11-25T10:37:56.406Z,20.94
2018-11-25T10:38:56.445Z,19.61
2018-11-25T10:39:56.488Z,20.23
2018-11-25T10:40:56.529Z,21.21
2018-11-25T10:41:56.571Z,21.54
2018-11-25T10:42:56.616Z,21.07
2018-11-25T10:43:56.657Z,20.85
2018-11-25T10:44:56.696Z,21.34
2018-11-25T10:45:56.738Z,21.29
2018-11-25T10:46:56.780Z,22.17
2018-11-25T10:47:56.823Z,21.47
2018-11-25T10:48:56.863Z,20.99
2018-11-25T10:49:56.906Z,21.01
2018-11-25T10:50:56.950Z,20.72
2018-11-25T10:51:56.990Z,20.05
2018-11-25T10:52:57.030Z,19.76
2018-11-25T10:53:57.073Z,20.10
2018-11-25T10:54:57.116Z,20.29
2018-11-25T10:55:57.158Z,20.64
2018-11-25T10:56:57.202Z,21.10
2018-11-25T10:57:57.241Z,21.09
2018-11-25T10:58:57.283Z,21.71
2018-11-25T10:59:57.324Z,21.43
2018-11-25T11:00:57.366Z,21.59
2018-11-25T11:01:57.406Z,21.80
2018-11-25T11:02:57.453Z,22.45
2018-11-25T11:03:57.492Z,22.68
2018-11-25T11:04:57.535Z,21.80
2018-11-25T11:05:57.576Z,21.68
2018-11-25T11:06:57.617Z,21.86
2018-11-25T11:07:57.661Z,21.68
2018-11-25T11:08:57.703Z,22.05
2018-11-25T11:09:57.744Z,22.02
2018-11-25T11:10:57.787Z,21.37
2018-11-25T11:11:57.831Z,21.65
2018-11-25T11:12:58.874Z,21.98
2018-11-25T11:13:57.916Z,22.10
2018-11-25T11:14:57.957Z,22.73
2018-11-25T11:15:57.999Z,22.95
2018-11-25T11:16:58.043Z,22.20
2018-11-25T11:17:58.086Z,21.31
2018-11-25T11:18:58.129Z,21.06
2018-11-25T11:19:58.174Z,20.79
2018-11-25T11:20:58.230Z,21.04
2018-11-25T11:21:58.257Z,20.05
2018-11-25T11:22:58.298Z,19.69
2018-11-25T11:23:58.342Z,19.78
2018-11-25T11:24:58.387Z,18.50
2018-11-25T11:25:58.427Z,19.43
2018-11-25T11:26:58.469Z,20.31
2018-11-25T11:27:58.560Z,20.31
2018-11-25T11:28:58.553Z,21.13
2018-11-25T11:29:58.594Z,20.76
2018-11-25T11:30:58.637Z,21.61
2018-11-25T11:31:58.679Z,21.71
2018-11-25T11:32:58.721Z,21.40
2018-11-25T11:33:58.763Z,21.40
2018-11-25T11:34:58.806Z,21.59
2018-11-25T11:35:58.848Z,21.61
2018-11-25T11:36:58.890Z,21.24
2018-11-25T11:37:58.934Z,19.07
2018-11-25T11:38:58.976Z,19.78
2018-11-25T11:39:59.062Z,19.62
2018-11-25T11:40:59.058Z,18.88
2018-11-25T11:41:59.100Z,18.41
2018-11-25T11:42:59.144Z,17.95
2018-11-25T11:43:59.185Z,18.37
2018-11-25T11:44:59.227Z,18.20
2018-11-25T11:45:59.269Z,18.26
2018-11-25T11:46:59.309Z,17.99
2018-11-25T11:47:59.350Z,17.79
2018-11-25T11:48:59.392Z,17.68
2018-11-25T11:49:59.433Z,18.20
2018-11-25T11:50:59.474Z,17.97
2018-11-25T11:51:59.515Z,18.14
2018-11-25T11:52:59.556Z,18.75
2018-11-25T11:53:59.597Z,18.88
2018-11-25T11:54:59.638Z,18.78
2018-11-25T11:55:59.682Z,18.85
2018-11-25T11:56:59.720Z,20.11
2018-11-25T11:57:59.762Z,20.26
2018-11-25T11:58:59.802Z,19.95
2018-11-25T11:59:59.843Z,20.32
2018-11-25T12:00:59.882Z,20.79
2018-11-25T12:01:59.923Z,20.23
2018-11-25T12:02:59.968Z,20.62
2018-11-25T12:04:00.014Z,21.22
2018-11-25T12:05:00.066Z,20.64
2018-11-25T12:06:00.089Z,18.73
2018-11-25T12:07:00.129Z,19.36
2018-11-25T12:08:00.230Z,19.62
2018-11-25T12:09:00.215Z,18.12
2018-11-25T12:10:00.252Z,17.46
2018-11-25T12:11:00.294Z,17.04
2018-11-25T12:12:00.334Z,16.48
2018-11-25T12:13:00.376Z,16.60
2018-11-25T12:14:00.420Z,16.11
2018-11-25T12:15:00.458Z,16.09
2018-11-25T12:16:00.497Z,16.57
2018-11-25T12:17:00.537Z,16.33
2018-11-25T12:18:00.578Z,16.20
2018-11-25T12:19:00.623Z,16.93
2018-11-25T12:20:00.659Z,17.79
2018-11-25T12:21:00.696Z,17.37
2018-11-25T12:22:00.741Z,16.82
2018-11-25T12:23:00.781Z,17.06
2018-11-25T12:24:00.816Z,17.21
2018-11-25T12:25:00.855Z,17.93
2018-11-25T12:26:00.953Z,18.36
2018-11-25T12:27:00.985Z,18.42
2018-11-25T12:28:00.978Z,17.21
2018-11-25T12:29:01.013Z,17.08
2018-11-25T12:30:01.052Z,17.97
2018-11-25T12:31:01.091Z,19.58
2018-11-25T12:32:01.131Z,20.35
2018-11-25T12:33:01.170Z,20.10
2018-11-25T12:34:01.209Z,18.57
2018-11-25T12:35:01.253Z,17.68
2018-11-25T12:36:01.288Z,16.70
2018-11-25T12:37:01.328Z,16.50
2018-11-25T12:38:01.367Z,15.64
2018-11-25T12:39:01.406Z,15.28
2018-11-25T12:40:01.450Z,15.43
2018-11-25T12:41:01.484Z,16.17
2018-11-25T12:42:01.523Z,17.22
2018-11-25T12:43:01.562Z,17.33
2018-11-25T12:44:01.601Z,17.03
2018-11-25T12:45:01.638Z,17.90
2018-11-25T12:46:01.677Z,18.67
2018-11-25T12:47:01.719Z,19.43
2018-11-25T12:48:01.759Z,19.58
2018-11-25T12:49:01.794Z,20.41
2018-11-25T12:50:01.837Z,20.26
2018-11-25T12:51:03.574Z,18.57
2018-11-25T12:52:01.911Z,17.74
2018-11-25T12:53:01.960Z,16.43
2018-11-25T12:54:01.986Z,15.59
2018-11-25T12:55:02.027Z,14.55
2018-11-25T12:56:02.065Z,14.36
2018-11-25T12:57:02.110Z,13.96
2018-11-25T12:58:02.140Z,13.59
2018-11-25T12:59:02.179Z,13.41
2018-11-25T13:00:02.224Z,13.14
2018-11-25T13:01:02.255Z,12.79
2018-11-25T13:02:02.297Z,12.52
2018-11-25T13:03:02.334Z,12.35
2018-11-25T13:04:02.367Z,12.60
2018-11-25T13:05:02.401Z,12.74
2018-11-25T13:06:02.438Z,12.62
2018-11-25T13:07:02.476Z,12.59
2018-11-25T13:08:02.511Z,12.50
2018-11-25T13:09:02.568Z,12.60
2018-11-25T13:10:02.581Z,12.70
2018-11-25T13:11:02.616Z,12.57
2018-11-25T13:12:02.659Z,12.70
2018-11-25T13:13:02.689Z,12.60